Time;durP1;ratioP1;P1;durP2;ratioP2;P2;SDS_P1;SDS_P2;PMS_P1;PMS_P2;Temp;Humidity;BMP_temperature;BMP_pressure;BME280_temperature;BME280_humidity;BME280_pressure;Samples;Min_cycle;Max_cycle;Signal;HPM_P1;HPM_P2
2022/10/16 00:02:23;;;;;;;14.93;10.97;;;;;;;;;;748608;187;918344;-59
2022/10/16 00:04:49;;;;;;;18.23;11.77;;;;;;;;;;741524;187;918990;-59
2022/10/16 00:07:15;;;;;;;18.57;11.50;;;;;;;;;;741394;187;917037;-58
2022/10/16 00:09:40;;;;;;;16.90;12.20;;;;;;;;;;743767;187;918919;-63
2022/10/16 00:12:07;;;;;;;16.00;11.10;;;;;;;;;;745436;186;918550;-64
2022/10/16 00:14:32;;;;;;;18.00;11.40;;;;;;;;;;741019;187;920675;-64
2022/10/16 00:16:58;;;;;;;12.75;10.27;;;;;;;;;;739865;187;918501;-58
2022/10/16 00:19:24;;;;;;;14.57;10.30;;;;;;;;;;748532;187;922491;-59
2022/10/16 00:21:50;;;;;;;18.93;12.00;;;;;;;;;;742978;186;918810;-59
2022/10/16 00:24:16;;;;;;;23.47;11.13;;;;;;;;;;743464;187;919474;-59
2022/10/16 00:26:41;;;;;;;13.33;10.73;;;;;;;;;;746477;187;918732;-59
2022/10/16 00:29:07;;;;;;;14.00;9.90;;;;;;;;;;746129;185;918958;-64
2022/10/16 00:31:33;;;;;;;13.23;10.63;;;;;;;;;;743732;184;921064;-64
2022/10/16 00:34:00;;;;;;;25.50;12.27;;;;;;;;;;749091;185;919078;-64
2022/10/16 00:36:25;;;;;;;15.50;10.70;;;;;;;;;;745592;185;922761;-59
2022/10/16 00:38:52;;;;;;;15.03;10.80;;;;;;;;;;742767;186;917595;-64
2022/10/16 00:41:17;;;;;;;16.70;12.10;;;;;;;;;;743567;187;920566;-59
2022/10/16 00:43:43;;;;;;;15.07;10.77;;;;;;;;;;749645;186;917101;-59
2022/10/16 00:46:11;;;;;;;16.93;10.97;;;;;;;;;;743367;186;918850;-63
2022/10/16 00:48:37;;;;;;;18.13;11.50;;;;;;;;;;744636;186;843144;-64
2022/10/16 00:51:02;;;;;;;20.77;12.70;;;;;;;;;;747109;186;797034;-59
2022/10/16 00:53:28;;;;;;;16.03;12.23;;;;;;;;;;743174;187;918931;-64
2022/10/16 00:55:54;;;;;;;14.83;10.10;;;;;;;;;;740860;186;918777;-64
2022/10/16 00:58:20;;;;;;;23.30;13.20;;;;;;;;;;746303;187;918982;-60
2022/10/16 01:00:46;;;;;;;15.07;11.33;;;;;;;;;;751407;187;916700;-64
2022/10/16 01:03:18;;;;;;;17.33;11.30;;;;;;;;;;741129;185;940290;-59
2022/10/16 01:05:44;;;;;;;19.37;12.53;;;;;;;;;;742382;186;872631;-59
2022/10/16 01:08:13;;;;;;;16.03;11.30;;;;;;;;;;746600;187;886993;-58
2022/10/16 01:10:38;;;;;;;16.77;11.17;;;;;;;;;;745763;186;919684;-59
2022/10/16 01:13:06;;;;;;;14.90;11.00;;;;;;;;;;743231;186;918877;-64
2022/10/16 01:15:34;;;;;;;16.50;12.03;;;;;;;;;;742214;186;919327;-64
2022/10/16 01:18:00;;;;;;;13.90;11.17;;;;;;;;;;747360;186;919123;-64
2022/10/16 01:20:26;;;;;;;15.77;11.30;;;;;;;;;;741114;187;919088;-65
2022/10/16 01:22:58;;;;;;;19.53;12.17;;;;;;;;;;741844;184;918899;-59
2022/10/16 01:25:25;;;;;;;17.97;11.20;;;;;;;;;;744656;186;817157;-59
2022/10/16 01:27:51;;;;;;;14.97;11.00;;;;;;;;;;747534;185;916119;-58
2022/10/16 01:30:17;;;;;;;21.30;11.93;;;;;;;;;;746776;186;909922;-59
2022/10/16 01:32:45;;;;;;;18.23;11.73;;;;;;;;;;740939;184;919257;-64
2022/10/16 01:35:12;;;;;;;19.27;11.38;;;;;;;;;;747163;187;818585;-64
2022/10/16 01:37:39;;;;;;;14.33;11.60;;;;;;;;;;741407;186;918848;-64
2022/10/16 01:40:05;;;;;;;17.13;11.80;;;;;;;;;;739042;186;919337;-59
2022/10/16 01:42:30;;;;;;;18.80;10.70;;;;;;;;;;750590;185;919664;-59
2022/10/16 01:44:56;;;;;;;15.97;10.23;;;;;;;;;;746074;186;919260;-59
2022/10/16 01:47:22;;;;;;;19.87;11.48;;;;;;;;;;743462;187;918501;-65
2022/10/16 01:49:48;;;;;;;17.27;11.07;;;;;;;;;;740417;187;920583;-64
2022/10/16 01:52:14;;;;;;;18.17;12.30;;;;;;;;;;747381;187;901621;-59
2022/10/16 01:54:40;;;;;;;15.30;10.63;;;;;;;;;;742536;187;922344;-64
2022/10/16 01:57:05;;;;;;;12.87;11.00;;;;;;;;;;743727;187;920772;-59
2022/10/16 01:59:31;;;;;;;19.40;12.33;;;;;;;;;;747968;187;918300;-64
2022/10/16 02:01:57;;;;;;;15.90;12.07;;;;;;;;;;743499;187;919280;-59
2022/10/16 02:04:33;;;;;;;17.23;10.97;;;;;;;;;;743833;187;917617;-59
2022/10/16 02:06:59;;;;;;;18.80;12.30;;;;;;;;;;746637;187;918727;-61
2022/10/16 02:09:24;;;;;;;14.73;11.00;;;;;;;;;;746524;187;915160;-61
2022/10/16 02:11:50;;;;;;;14.90;12.43;;;;;;;;;;743136;187;930477;-60
2022/10/16 02:14:16;;;;;;;18.87;11.70;;;;;;;;;;740986;185;816674;-61
2022/10/16 02:16:43;;;;;;;24.07;11.40;;;;;;;;;;747566;187;816577;-60
2022/10/16 02:19:09;;;;;;;15.00;11.37;;;;;;;;;;744369;186;817090;-61
2022/10/16 02:21:43;;;;;;;16.27;11.20;;;;;;;;;;741011;187;937743;-66
2022/10/16 02:24:08;;;;;;;13.40;11.13;;;;;;;;;;741607;187;917083;-60
2022/10/16 02:26:38;;;;;;;15.67;11.13;;;;;;;;;;745413;187;914184;-66
2022/10/16 02:29:04;;;;;;;18.30;11.53;;;;;;;;;;739168;186;920646;-65
2022/10/16 02:31:30;;;;;;;18.83;10.87;;;;;;;;;;741599;187;949474;-65
2022/10/16 02:33:55;;;;;;;15.83;11.10;;;;;;;;;;742237;185;888716;-64
2022/10/16 02:36:21;;;;;;;17.33;11.63;;;;;;;;;;735833;190;915511;-60
2022/10/16 02:38:47;;;;;;;23.03;10.93;;;;;;;;;;742200;184;916741;-65
2022/10/16 02:41:13;;;;;;;13.30;11.00;;;;;;;;;;744017;184;916236;-60
2022/10/16 02:43:39;;;;;;;16.30;10.57;;;;;;;;;;743653;186;775530;-65
2022/10/16 02:46:05;;;;;;;15.40;11.43;;;;;;;;;;739069;186;919371;-65
2022/10/16 02:48:30;;;;;;;21.80;12.20;;;;;;;;;;742286;187;938552;-65
2022/10/16 02:50:57;;;;;;;16.40;10.37;;;;;;;;;;747867;187;917967;-60
2022/10/16 02:53:22;;;;;;;16.20;11.80;;;;;;;;;;743519;186;918292;-60
2022/10/16 02:55:48;;;;;;;13.93;10.80;;;;;;;;;;745008;186;920376;-60
2022/10/16 02:58:15;;;;;;;12.23;10.25;;;;;;;;;;749010;186;818136;-60
2022/10/16 03:00:41;;;;;;;14.80;11.60;;;;;;;;;;746150;189;818882;-60
2022/10/16 03:03:06;;;;;;;20.33;12.33;;;;;;;;;;740435;188;819712;-60
2022/10/16 03:05:32;;;;;;;21.40;12.90;;;;;;;;;;742757;187;922074;-60
2022/10/16 03:08:00;;;;;;;15.87;11.10;;;;;;;;;;746504;185;916825;-65
2022/10/16 03:10:24;;;;;;;14.38;11.00;;;;;;;;;;742879;187;915583;-60
2022/10/16 03:12:51;;;;;;;16.07;10.33;;;;;;;;;;743866;184;815531;-65
2022/10/16 03:15:17;;;;;;;21.77;10.43;;;;;;;;;;749111;187;912191;-60
2022/10/16 03:17:43;;;;;;;14.90;10.50;;;;;;;;;;742383;186;918435;-64
2022/10/16 03:20:09;;;;;;;14.27;10.70;;;;;;;;;;743872;187;917420;-65
2022/10/16 03:22:35;;;;;;;16.23;10.60;;;;;;;;;;739582;187;917622;-60
2022/10/16 03:25:01;;;;;;;14.70;10.40;;;;;;;;;;742392;186;941548;-65
2022/10/16 03:27:27;;;;;;;14.20;9.53;;;;;;;;;;741043;187;918372;-65
2022/10/16 03:29:53;;;;;;;18.33;11.80;;;;;;;;;;743725;187;919706;-61
2022/10/16 03:32:20;;;;;;;18.73;10.97;;;;;;;;;;749090;187;918859;-65
2022/10/16 03:34:45;;;;;;;15.27;11.33;;;;;;;;;;741191;184;915962;-65
2022/10/16 03:37:11;;;;;;;17.50;11.83;;;;;;;;;;741605;185;915095;-60
2022/10/16 03:39:37;;;;;;;14.03;9.60;;;;;;;;;;752606;187;793052;-60
2022/10/16 03:42:03;;;;;;;17.47;11.70;;;;;;;;;;744688;186;925483;-60
2022/10/16 03:44:29;;;;;;;16.30;11.50;;;;;;;;;;742471;187;924554;-61
2022/10/16 03:46:55;;;;;;;15.43;11.10;;;;;;;;;;745319;186;832628;-64
2022/10/16 03:49:22;;;;;;;13.87;9.43;;;;;;;;;;750665;186;818091;-60
2022/10/16 03:51:48;;;;;;;16.20;12.10;;;;;;;;;;736315;189;818536;-65
2022/10/16 03:54:14;;;;;;;14.05;10.60;;;;;;;;;;745238;186;917940;-61
2022/10/16 03:56:40;;;;;;;15.23;11.43;;;;;;;;;;753280;186;815991;-65
2022/10/16 03:59:06;;;;;;;17.17;12.33;;;;;;;;;;743690;187;918712;-61
2022/10/16 04:01:31;;;;;;;19.65;12.45;;;;;;;;;;745592;187;918808;-65
2022/10/16 04:03:57;;;;;;;16.53;10.70;;;;;;;;;;749543;187;818029;-66
2022/10/16 04:06:23;;;;;;;12.77;10.57;;;;;;;;;;751294;185;816190;-65
2022/10/16 04:08:49;;;;;;;16.37;10.83;;;;;;;;;;743226;186;816304;-60
2022/10/16 04:11:15;;;;;;;15.88;11.23;;;;;;;;;;747391;187;918912;-65
2022/10/16 04:13:41;;;;;;;22.27;11.57;;;;;;;;;;744405;186;816200;-60
2022/10/16 04:16:07;;;;;;;15.83;11.47;;;;;;;;;;745528;186;918625;-60
2022/10/16 04:18:33;;;;;;;15.10;11.47;;;;;;;;;;743681;187;917760;-60
2022/10/16 04:21:02;;;;;;;11.60;10.17;;;;;;;;;;747980;186;915839;-64
2022/10/16 04:23:28;;;;;;;15.27;10.48;;;;;;;;;;741770;184;919029;-66
2022/10/16 04:25:54;;;;;;;18.90;10.27;;;;;;;;;;741796;187;919020;-65
2022/10/16 04:28:20;;;;;;;15.97;10.70;;;;;;;;;;748103;186;917911;-60
2022/10/16 04:30:46;;;;;;;15.87;10.00;;;;;;;;;;743178;187;918645;-60
2022/10/16 04:33:12;;;;;;;21.43;10.50;;;;;;;;;;743528;187;919194;-59
2022/10/16 04:35:38;;;;;;;23.40;10.50;;;;;;;;;;742541;187;918753;-65
2022/10/16 04:38:03;;;;;;;14.63;10.70;;;;;;;;;;748498;186;918853;-59
2022/10/16 04:40:32;;;;;;;16.23;9.77;;;;;;;;;;742357;185;919241;-60
2022/10/16 04:42:55;;;;;;;18.50;11.50;;;;;;;;;;742550;186;913420;-60
2022/10/16 04:45:21;;;;;;;35.23;11.70;;;;;;;;;;746335;187;921242;-65
2022/10/16 04:47:47;;;;;;;17.67;10.90;;;;;;;;;;741424;186;941278;-60
2022/10/16 04:50:13;;;;;;;14.80;11.00;;;;;;;;;;744547;186;818069;-63
2022/10/16 04:52:38;;;;;;;15.67;11.10;;;;;;;;;;745789;187;818761;-66
2022/10/16 04:55:05;;;;;;;17.80;11.33;;;;;;;;;;744155;187;918517;-60
2022/10/16 04:57:31;;;;;;;16.07;10.23;;;;;;;;;;742265;187;943364;-64
2022/10/16 04:59:56;;;;;;;16.97;12.03;;;;;;;;;;743977;185;884781;-65
2022/10/16 05:02:22;;;;;;;14.40;11.10;;;;;;;;;;747574;186;918932;-65
2022/10/16 05:04:48;;;;;;;16.97;12.00;;;;;;;;;;746089;186;816419;-65
2022/10/16 05:07:14;;;;;;;17.33;12.07;;;;;;;;;;742980;186;917310;-60
2022/10/16 05:09:40;;;;;;;17.33;11.53;;;;;;;;;;746966;186;916679;-60
2022/10/16 05:12:06;;;;;;;18.53;11.90;;;;;;;;;;741467;187;919529;-60
2022/10/16 05:14:31;;;;;;;72.13;36.67;;;;;;;;;;740875;185;1020572;-65
2022/10/16 05:16:57;;;;;;;29.57;18.30;;;;;;;;;;747684;186;828611;-59
2022/10/16 05:19:23;;;;;;;23.57;14.00;;;;;;;;;;746447;185;918370;-60
2022/10/16 05:21:49;;;;;;;20.25;13.10;;;;;;;;;;745217;186;919525;-66
2022/10/16 05:24:15;;;;;;;26.33;17.53;;;;;;;;;;748682;185;918798;-66
2022/10/16 05:26:41;;;;;;;23.70;17.33;;;;;;;;;;743541;187;918457;-60
2022/10/16 05:29:07;;;;;;;23.35;18.30;;;;;;;;;;743251;186;873781;-63
2022/10/16 05:31:32;;;;;;;40.07;18.50;;;;;;;;;;743919;184;915536;-60
2022/10/16 05:33:58;;;;;;;20.90;16.12;;;;;;;;;;748111;186;920581;-65
2022/10/16 05:36:24;;;;;;;27.93;17.70;;;;;;;;;;741360;186;918934;-64
2022/10/16 05:38:50;;;;;;;21.17;17.20;;;;;;;;;;746804;184;920700;-64
2022/10/16 05:41:21;;;;;;;25.50;14.63;;;;;;;;;;748697;187;819453;-65
2022/10/16 05:43:42;;;;;;;18.00;14.20;;;;;;;;;;747478;185;816027;-65
2022/10/16 05:46:07;;;;;;;17.30;14.40;;;;;;;;;;743241;187;815362;-61
2022/10/16 05:48:33;;;;;;;20.62;15.50;;;;;;;;;;747608;186;918622;-60
2022/10/16 05:51:00;;;;;;;22.63;15.40;;;;;;;;;;744567;186;816405;-60
2022/10/16 05:53:26;;;;;;;16.43;13.17;;;;;;;;;;740506;185;918780;-58
2022/10/16 05:55:52;;;;;;;15.30;11.70;;;;;;;;;;742095;186;915251;-60
2022/10/16 05:58:18;;;;;;;23.47;12.57;;;;;;;;;;748849;184;909185;-65
2022/10/16 06:00:43;;;;;;;18.50;12.10;;;;;;;;;;741149;187;915843;-60
2022/10/16 06:03:09;;;;;;;18.70;13.50;;;;;;;;;;740251;187;821311;-65
2022/10/16 06:05:35;;;;;;;28.27;15.93;;;;;;;;;;749564;187;655694;-60
2022/10/16 06:08:02;;;;;;;51.93;34.90;;;;;;;;;;745513;187;909029;-64
2022/10/16 06:10:28;;;;;;;38.23;26.23;;;;;;;;;;741689;186;916251;-60
2022/10/16 06:12:53;;;;;;;25.57;18.87;;;;;;;;;;745753;187;915256;-65
2022/10/16 06:15:19;;;;;;;27.40;18.60;;;;;;;;;;741442;187;919748;-66
2022/10/16 06:17:45;;;;;;;30.93;18.50;;;;;;;;;;741143;186;919869;-60
2022/10/16 06:20:11;;;;;;;28.97;19.13;;;;;;;;;;739428;187;922782;-65
2022/10/16 06:22:37;;;;;;;19.43;13.87;;;;;;;;;;752293;181;820975;-59
2022/10/16 06:25:03;;;;;;;38.33;22.70;;;;;;;;;;743551;187;926290;-61
2022/10/16 06:27:29;;;;;;;139.70;88.43;;;;;;;;;;747047;186;628174;-61
2022/10/16 06:29:55;;;;;;;172.00;103.17;;;;;;;;;;751258;186;721829;-61
2022/10/16 06:32:21;;;;;;;57.27;35.73;;;;;;;;;;746330;186;639027;-61
2022/10/16 06:34:46;;;;;;;37.93;28.27;;;;;;;;;;747775;187;638942;-60
2022/10/16 06:37:12;;;;;;;38.90;24.33;;;;;;;;;;750555;186;625582;-61
2022/10/16 06:39:38;;;;;;;26.80;22.27;;;;;;;;;;745248;187;807974;-60
2022/10/16 06:42:04;;;;;;;103.57;56.73;;;;;;;;;;745742;187;626855;-59
2022/10/16 06:44:30;;;;;;;168.20;84.40;;;;;;;;;;747954;185;627760;-61
2022/10/16 06:46:56;;;;;;;34.97;20.27;;;;;;;;;;748459;188;617103;-67
2022/10/16 06:49:22;;;;;;;30.60;23.20;;;;;;;;;;742957;187;623253;-61
2022/10/16 06:51:48;;;;;;;37.67;28.17;;;;;;;;;;745120;187;630395;-61
2022/10/16 06:54:14;;;;;;;45.30;26.80;;;;;;;;;;750073;187;644617;-67
2022/10/16 06:56:40;;;;;;;44.67;31.13;;;;;;;;;;746434;186;619209;-61
2022/10/16 06:59:06;;;;;;;16.07;12.17;;;;;;;;;;746161;186;631600;-61
2022/10/16 07:01:32;;;;;;;17.70;11.20;;;;;;;;;;751043;186;635215;-66
2022/10/16 07:03:58;;;;;;;20.83;13.83;;;;;;;;;;745579;185;853336;-66
2022/10/16 07:06:24;;;;;;;18.30;14.90;;;;;;;;;;742592;186;922640;-61
2022/10/16 07:08:50;;;;;;;16.80;12.90;;;;;;;;;;742215;187;918623;-65
2022/10/16 07:11:16;;;;;;;16.70;12.47;;;;;;;;;;746913;188;919310;-66
2022/10/16 07:13:42;;;;;;;17.20;12.10;;;;;;;;;;737752;186;923168;-66
2022/10/16 07:16:08;;;;;;;22.37;15.23;;;;;;;;;;740657;184;910648;-61
2022/10/16 07:18:34;;;;;;;22.50;14.40;;;;;;;;;;750438;186;616908;-66
2022/10/16 07:21:03;;;;;;;17.00;11.37;;;;;;;;;;740741;187;937984;-65
2022/10/16 07:23:29;;;;;;;15.77;12.43;;;;;;;;;;742380;186;918124;-60
2022/10/16 07:25:55;;;;;;;17.17;11.50;;;;;;;;;;749757;187;816944;-60
2022/10/16 07:28:20;;;;;;;17.00;12.97;;;;;;;;;;744219;187;919489;-60
2022/10/16 07:30:46;;;;;;;17.70;14.07;;;;;;;;;;743495;187;903262;-67
2022/10/16 07:33:12;;;;;;;18.93;11.93;;;;;;;;;;742829;187;816379;-61
2022/10/16 07:35:38;;;;;;;13.98;11.60;;;;;;;;;;747762;186;902890;-65
2022/10/16 07:38:04;;;;;;;18.80;13.87;;;;;;;;;;739055;187;941574;-59
2022/10/16 07:40:29;;;;;;;20.07;12.27;;;;;;;;;;739230;186;918912;-66
2022/10/16 07:42:55;;;;;;;17.40;12.53;;;;;;;;;;747786;187;918854;-66
2022/10/16 07:45:21;;;;;;;14.90;11.00;;;;;;;;;;747151;186;904306;-60
2022/10/16 07:47:47;;;;;;;14.25;11.93;;;;;;;;;;739245;186;918043;-66
2022/10/16 07:50:13;;;;;;;13.53;10.70;;;;;;;;;;748385;185;917361;-61
2022/10/16 07:52:39;;;;;;;17.10;9.70;;;;;;;;;;745382;186;919028;-61
2022/10/16 07:55:05;;;;;;;13.68;10.45;;;;;;;;;;744904;186;918885;-61
2022/10/16 07:57:31;;;;;;;12.93;8.97;;;;;;;;;;743084;187;918566;-61
2022/10/16 07:59:57;;;;;;;14.70;9.47;;;;;;;;;;750332;186;819363;-67
2022/10/16 08:02:23;;;;;;;14.00;10.57;;;;;;;;;;739421;186;822934;-66
2022/10/16 08:04:50;;;;;;;12.60;10.70;;;;;;;;;;741604;187;921874;-61
2022/10/16 08:07:14;;;;;;;19.07;10.67;;;;;;;;;;748404;184;815278;-59
2022/10/16 08:09:40;;;;;;;13.82;10.18;;;;;;;;;;743750;185;816651;-60
2022/10/16 08:12:07;;;;;;;16.33;9.33;;;;;;;;;;741410;184;1017078;-61
2022/10/16 08:14:32;;;;;;;19.03;9.57;;;;;;;;;;748282;186;871578;-65
2022/10/16 08:16:58;;;;;;;17.83;10.53;;;;;;;;;;742522;186;922641;-66
2022/10/16 08:19:24;;;;;;;12.50;10.00;;;;;;;;;;743926;186;921959;-66
2022/10/16 08:21:50;;;;;;;12.40;9.50;;;;;;;;;;745112;186;938165;-65
2022/10/16 08:24:16;;;;;;;15.50;10.13;;;;;;;;;;748364;186;919020;-60
2022/10/16 08:26:42;;;;;;;14.93;10.70;;;;;;;;;;740063;185;919318;-60
2022/10/16 08:29:08;;;;;;;13.67;9.60;;;;;;;;;;741671;187;920736;-65
2022/10/16 08:31:34;;;;;;;13.97;9.80;;;;;;;;;;746658;187;816387;-66
2022/10/16 08:34:00;;;;;;;9.83;8.80;;;;;;;;;;742168;187;943911;-60
2022/10/16 08:36:26;;;;;;;10.70;8.57;;;;;;;;;;742215;184;920341;-61
2022/10/16 08:38:54;;;;;;;15.03;10.13;;;;;;;;;;746997;187;921301;-60
2022/10/16 08:41:37;;;;;;;13.50;10.10;;;;;;;;;;744375;187;902181;-66
2022/10/16 08:44:20;;;;;;;13.20;8.57;;;;;;;;;;738480;187;917944;-60
2022/10/16 08:46:46;;;;;;;11.37;9.07;;;;;;;;;;737492;184;919227;-61
2022/10/16 08:49:13;;;;;;;12.23;9.53;;;;;;;;;;740051;184;817553;-67
2022/10/16 08:51:38;;;;;;;12.80;9.57;;;;;;;;;;742935;185;917623;-61
2022/10/16 08:54:04;;;;;;;13.47;9.50;;;;;;;;;;749614;185;910527;-66
2022/10/16 08:56:30;;;;;;;14.70;10.17;;;;;;;;;;744653;186;917152;-66
2022/10/16 08:58:56;;;;;;;19.08;9.43;;;;;;;;;;744753;186;920064;-67
2022/10/16 09:01:22;;;;;;;12.10;9.17;;;;;;;;;;750067;186;883010;-60
2022/10/16 09:03:53;;;;;;;13.43;8.70;;;;;;;;;;742766;186;919614;-66
2022/10/16 09:06:23;;;;;;;10.93;8.60;;;;;;;;;;742948;186;881088;-67
2022/10/16 09:08:55;;;;;;;12.30;8.90;;;;;;;;;;741986;187;781320;-61
2022/10/16 09:11:22;;;;;;;11.53;9.30;;;;;;;;;;746358;187;814645;-60
2022/10/16 09:13:50;;;;;;;11.37;9.23;;;;;;;;;;744905;184;910832;-66
2022/10/16 09:16:21;;;;;;;13.17;9.70;;;;;;;;;;744662;186;633853;-67
2022/10/16 09:18:52;;;;;;;14.30;9.00;;;;;;;;;;746163;187;634947;-61
2022/10/16 09:21:20;;;;;;;22.70;10.60;;;;;;;;;;748402;186;921212;-60
2022/10/16 09:23:45;;;;;;;18.30;9.50;;;;;;;;;;747182;186;811571;-61
2022/10/16 09:26:12;;;;;;;10.83;8.60;;;;;;;;;;744630;186;924663;-61
2022/10/16 09:28:38;;;;;;;10.37;8.53;;;;;;;;;;745378;185;625052;-67
2022/10/16 09:31:05;;;;;;;12.23;9.00;;;;;;;;;;749239;186;633465;-61
2022/10/16 09:33:31;;;;;;;13.93;9.30;;;;;;;;;;743753;185;919581;-62
2022/10/16 09:35:58;;;;;;;11.50;8.43;;;;;;;;;;740039;186;917008;-61
2022/10/16 09:38:24;;;;;;;13.25;9.55;;;;;;;;;;747495;186;922314;-60
2022/10/16 09:40:50;;;;;;;17.00;8.70;;;;;;;;;;746538;186;864829;-60
2022/10/16 09:43:19;;;;;;;11.70;8.67;;;;;;;;;;743243;186;919279;-61
2022/10/16 09:45:51;;;;;;;12.33;8.20;;;;;;;;;;742436;185;826177;-67
2022/10/16 09:48:17;;;;;;;15.43;9.27;;;;;;;;;;746479;187;826994;-61
2022/10/16 09:50:43;;;;;;;12.63;10.60;;;;;;;;;;742606;184;861840;-61
2022/10/16 09:53:10;;;;;;;13.43;9.27;;;;;;;;;;743027;187;900454;-62
2022/10/16 09:55:37;;;;;;;13.17;8.60;;;;;;;;;;741307;186;917689;-63
2022/10/16 09:58:03;;;;;;;12.70;10.53;;;;;;;;;;750279;185;917297;-59
2022/10/16 10:00:29;;;;;;;9.73;8.00;;;;;;;;;;745342;187;818480;-66
2022/10/16 10:02:55;;;;;;;16.03;9.70;;;;;;;;;;741537;185;918286;-66
2022/10/16 10:05:21;;;;;;;12.30;8.80;;;;;;;;;;749469;185;919502;-66
2022/10/16 10:07:47;;;;;;;11.80;8.77;;;;;;;;;;744330;186;919107;-60
2022/10/16 10:10:20;;;;;;;10.23;8.77;;;;;;;;;;741749;187;919412;-66
2022/10/16 10:12:46;;;;;;;12.70;8.73;;;;;;;;;;742342;187;916895;-59
2022/10/16 10:15:12;;;;;;;10.63;8.80;;;;;;;;;;748179;187;919118;-65
2022/10/16 10:17:44;;;;;;;16.67;9.67;;;;;;;;;;748425;186;817660;-67
2022/10/16 10:20:27;;;;;;;11.90;8.43;;;;;;;;;;750502;184;617224;-59
2022/10/16 10:22:52;;;;;;;13.30;10.03;;;;;;;;;;747656;187;636784;-59
2022/10/16 10:25:19;;;;;;;19.23;9.27;;;;;;;;;;746248;187;842131;-66
2022/10/16 10:27:48;;;;;;;11.55;8.70;;;;;;;;;;748059;186;875108;-60
2022/10/16 10:30:15;;;;;;;11.90;8.53;;;;;;;;;;738677;186;914841;-65
2022/10/16 10:32:41;;;;;;;11.10;8.93;;;;;;;;;;744307;186;822468;-67
2022/10/16 10:35:07;;;;;;;11.60;9.13;;;;;;;;;;746237;187;925289;-60
2022/10/16 10:37:35;;;;;;;12.87;9.60;;;;;;;;;;744412;186;920146;-60
2022/10/16 10:40:03;;;;;;;11.47;8.90;;;;;;;;;;744175;184;816115;-67
2022/10/16 10:42:28;;;;;;;12.07;8.60;;;;;;;;;;741912;186;917696;-66
2022/10/16 10:45:00;;;;;;;10.70;8.80;;;;;;;;;;749874;185;915208;-59
2022/10/16 10:47:41;;;;;;;12.33;9.97;;;;;;;;;;740614;188;815822;-68
2022/10/16 10:50:07;;;;;;;11.03;9.80;;;;;;;;;;743277;187;917627;-67
2022/10/16 10:52:34;;;;;;;12.97;9.47;;;;;;;;;;745365;187;633976;-68
2022/10/16 10:55:00;;;;;;;16.20;10.47;;;;;;;;;;747768;184;911745;-59
2022/10/16 10:57:26;;;;;;;12.47;10.30;;;;;;;;;;744335;185;918696;-58
2022/10/16 11:00:09;;;;;;;12.93;8.73;;;;;;;;;;744381;185;918836;-67
2022/10/16 11:02:36;;;;;;;15.80;10.43;;;;;;;;;;747607;185;918559;-59
2022/10/16 11:05:05;;;;;;;10.83;9.43;;;;;;;;;;740409;185;920316;-68
2022/10/16 11:07:31;;;;;;;21.13;9.33;;;;;;;;;;748232;187;624040;-60
2022/10/16 11:09:57;;;;;;;15.43;10.13;;;;;;;;;;747256;187;634732;-59
2022/10/16 11:12:23;;;;;;;14.53;9.73;;;;;;;;;;746019;186;620667;-68
2022/10/16 11:14:55;;;;;;;15.20;9.80;;;;;;;;;;745395;185;816772;-59
2022/10/16 11:17:25;;;;;;;16.67;9.17;;;;;;;;;;755077;185;674781;-59
2022/10/16 11:19:52;;;;;;;13.30;10.70;;;;;;;;;;742270;187;816188;-67
2022/10/16 11:22:19;;;;;;;14.40;9.60;;;;;;;;;;745078;186;795923;-67
2022/10/16 11:24:45;;;;;;;13.67;9.10;;;;;;;;;;746310;187;816929;-67
2022/10/16 11:27:11;;;;;;;16.30;9.63;;;;;;;;;;745135;184;820461;-58
2022/10/16 11:29:37;;;;;;;12.33;10.40;;;;;;;;;;743366;185;918827;-59
2022/10/16 11:32:05;;;;;;;11.70;10.50;;;;;;;;;;743146;185;824757;-59
2022/10/16 11:34:34;;;;;;;13.90;10.20;;;;;;;;;;746732;185;918849;-68
2022/10/16 11:37:05;;;;;;;13.90;9.67;;;;;;;;;;742431;186;898983;-68
2022/10/16 11:39:30;;;;;;;12.30;10.50;;;;;;;;;;741689;187;917664;-69
2022/10/16 11:41:57;;;;;;;18.08;10.27;;;;;;;;;;744018;186;918879;-67
2022/10/16 11:44:37;;;;;;;13.57;8.93;;;;;;;;;;751393;185;918129;-67
2022/10/16 11:47:18;;;;;;;13.73;10.37;;;;;;;;;;750586;185;893833;-68
2022/10/16 11:49:44;;;;;;;14.80;9.47;;;;;;;;;;748183;186;923079;-66
2022/10/16 11:52:16;;;;;;;16.57;10.30;;;;;;;;;;742271;186;918201;-66
2022/10/16 11:54:57;;;;;;;11.67;8.73;;;;;;;;;;740782;184;918828;-66
2022/10/16 11:57:23;;;;;;;14.30;10.83;;;;;;;;;;737290;185;930821;-60
2022/10/16 11:59:49;;;;;;;14.17;10.73;;;;;;;;;;747437;187;915092;-59
2022/10/16 12:02:29;;;;;;;17.40;11.70;;;;;;;;;;744473;184;816222;-60
2022/10/16 12:05:06;;;;;;;14.13;11.10;;;;;;;;;;742985;187;917929;-60
2022/10/16 12:07:32;;;;;;;13.90;10.63;;;;;;;;;;741956;187;1098728;-61
2022/10/16 12:10:00;;;;;;;16.73;11.30;;;;;;;;;;742898;186;918580;-59
2022/10/16 12:12:24;;;;;;;13.80;10.70;;;;;;;;;;747761;186;816088;-59
2022/10/16 12:14:50;;;;;;;14.30;11.20;;;;;;;;;;743525;187;816439;-60
2022/10/16 12:17:23;;;;;;;15.00;10.77;;;;;;;;;;741915;186;818018;-59
2022/10/16 12:19:55;;;;;;;13.70;11.30;;;;;;;;;;742097;184;922410;-67
2022/10/16 12:22:21;;;;;;;15.50;11.57;;;;;;;;;;743968;185;913878;-59
2022/10/16 12:24:47;;;;;;;14.00;11.50;;;;;;;;;;741497;185;910423;-67
2022/10/16 12:27:19;;;;;;;13.20;11.03;;;;;;;;;;745255;185;833277;-60
2022/10/16 12:29:44;;;;;;;12.18;10.88;;;;;;;;;;743960;186;918464;-68
2022/10/16 12:32:16;;;;;;;14.80;10.97;;;;;;;;;;743432;186;921523;-58
2022/10/16 12:34:43;;;;;;;11.40;10.20;;;;;;;;;;742399;186;921987;-60
2022/10/16 12:37:09;;;;;;;16.60;10.87;;;;;;;;;;741257;185;918713;-67
2022/10/16 12:39:36;;;;;;;14.57;11.50;;;;;;;;;;746888;186;919310;-59
2022/10/16 12:42:01;;;;;;;13.70;10.60;;;;;;;;;;741871;185;919087;-67
2022/10/16 12:44:27;;;;;;;13.13;11.37;;;;;;;;;;741438;187;918459;-58
2022/10/16 12:46:53;;;;;;;18.73;12.23;;;;;;;;;;741632;186;919246;-59
2022/10/16 12:49:24;;;;;;;17.10;12.67;;;;;;;;;;742867;188;919312;-59
2022/10/16 12:51:48;;;;;;;16.80;12.03;;;;;;;;;;740204;185;918993;-67
2022/10/16 12:54:24;;;;;;;15.53;11.00;;;;;;;;;;741444;186;922930;-59
2022/10/16 12:56:53;;;;;;;14.40;10.43;;;;;;;;;;739691;186;918625;-60
2022/10/16 12:59:19;;;;;;;14.50;11.40;;;;;;;;;;745942;187;918746;-67
2022/10/16 13:01:51;;;;;;;15.60;11.70;;;;;;;;;;744048;187;918548;-60
2022/10/16 13:04:22;;;;;;;15.10;12.07;;;;;;;;;;742156;187;816676;-59
2022/10/16 13:07:03;;;;;;;17.87;13.07;;;;;;;;;;741693;187;912832;-60
2022/10/16 13:09:29;;;;;;;16.80;12.77;;;;;;;;;;747077;185;923598;-66
2022/10/16 13:12:10;;;;;;;13.40;12.00;;;;;;;;;;747187;188;816428;-59
2022/10/16 13:14:51;;;;;;;16.27;12.13;;;;;;;;;;751439;187;819971;-66
2022/10/16 13:17:23;;;;;;;15.43;12.00;;;;;;;;;;746235;186;816503;-67
2022/10/16 13:19:50;;;;;;;16.40;11.90;;;;;;;;;;737086;187;852279;-59
2022/10/16 13:22:17;;;;;;;17.23;13.27;;;;;;;;;;741254;187;883787;-68
2022/10/16 13:25:01;;;;;;;15.23;11.23;;;;;;;;;;740607;187;925950;-61
2022/10/16 13:27:28;;;;;;;16.63;11.60;;;;;;;;;;740886;187;919222;-67
2022/10/16 13:29:55;;;;;;;15.73;12.00;;;;;;;;;;755942;182;908725;-67
2022/10/16 13:32:19;;;;;;;17.53;12.03;;;;;;;;;;742371;187;918648;-67
2022/10/16 13:34:45;;;;;;;20.33;13.30;;;;;;;;;;742424;186;918816;-59
2022/10/16 13:37:17;;;;;;;15.20;11.87;;;;;;;;;;750076;187;855121;-67
2022/10/16 13:39:43;;;;;;;18.20;12.67;;;;;;;;;;746657;186;933023;-67
2022/10/16 13:42:09;;;;;;;16.07;11.37;;;;;;;;;;747032;186;819233;-68
2022/10/16 13:44:37;;;;;;;15.30;11.90;;;;;;;;;;744815;186;918102;-67
2022/10/16 13:47:03;;;;;;;17.00;11.33;;;;;;;;;;747896;186;914352;-60
2022/10/16 13:49:29;;;;;;;18.83;12.47;;;;;;;;;;744023;187;814502;-67
2022/10/16 13:51:55;;;;;;;14.87;12.40;;;;;;;;;;743494;187;917507;-66
2022/10/16 13:54:21;;;;;;;17.53;12.63;;;;;;;;;;748694;187;818828;-67
2022/10/16 13:56:46;;;;;;;18.00;11.77;;;;;;;;;;742484;187;918573;-67
2022/10/16 13:59:18;;;;;;;15.67;12.00;;;;;;;;;;744862;185;816175;-60
2022/10/16 14:01:44;;;;;;;15.10;11.83;;;;;;;;;;744363;187;918609;-66
2022/10/16 14:04:10;;;;;;;14.37;12.10;;;;;;;;;;749074;187;912473;-59
2022/10/16 14:06:36;;;;;;;19.33;12.50;;;;;;;;;;745152;187;919055;-60